Mountainburg, Arkansas
Current Conditions -  °F | °C
As of 7:53 PM on Wednesday 26 Nov 2014 (Local Time) from KFSM Reporting Station
Clear Clear  
Wind Chill: 40°   Ceiling: Unl
Heat Index: 47°   Visibility: 10mi
Dew Point: 24°   Wind: 17mph
Humidity: 41%   Direction: 320°NW
Pressure: 30.26"   Gusts: 26mph
Location:  35.64°N, 94.17°W
Report Text: KFSM 270153Z 32015G23KT 10SM CLR 08/M04 A3026 RMK AO2 SLP249 T00831044
Loading
Personal Weather Stations






























Interactive Weather Map New forecast layout! Learn more

10-Day Weather Forecast

Advertisements
Track Severe Weather on mobile